sensor_id;sensor_type;location;lat;lon;timestamp;temperature;humidity
12130;DHT22;6128;59.340;18.040;2022-08-11T00:01:11;20.80;99.90
12130;DHT22;6128;59.340;18.040;2022-08-11T00:03:43;20.80;99.90
12130;DHT22;6128;59.340;18.040;2022-08-11T00:06:11;20.80;99.90
12130;DHT22;6128;59.340;18.040;2022-08-11T00:08:42;20.80;99.90
12130;DHT22;6128;59.340;18.040;2022-08-11T00:11:15;20.80;99.90
12130;DHT22;6128;59.340;18.040;2022-08-11T00:13:45;20.80;99.90
12130;DHT22;6128;59.340;18.040;2022-08-11T00:16:14;20.80;99.90
12130;DHT22;6128;59.340;18.040;2022-08-11T00:18:45;20.80;99.90
12130;DHT22;6128;59.340;18.040;2022-08-11T00:21:16;20.70;99.90
12130;DHT22;6128;59.340;18.040;2022-08-11T00:23:45;20.60;99.90
12130;DHT22;6128;59.340;18.040;2022-08-11T00:26:14;20.50;99.90
12130;DHT22;6128;59.340;18.040;2022-08-11T00:28:41;20.50;99.90
12130;DHT22;6128;59.340;18.040;2022-08-11T00:31:21;20.50;99.90
12130;DHT22;6128;59.340;18.040;2022-08-11T00:33:50;20.40;99.90
12130;DHT22;6128;59.340;18.040;2022-08-11T00:36:19;20.40;99.90
12130;DHT22;6128;59.340;18.040;2022-08-11T00:38:51;20.30;99.90
12130;DHT22;6128;59.340;18.040;2022-08-11T00:41:30;20.30;99.90
12130;DHT22;6128;59.340;18.040;2022-08-11T00:44:26;20.30;99.90
12130;DHT22;6128;59.340;18.040;2022-08-11T00:47:03;20.30;99.90
12130;DHT22;6128;59.340;18.040;2022-08-11T00:49:40;20.30;99.90
12130;DHT22;6128;59.340;18.040;2022-08-11T00:52:27;20.40;99.90
12130;DHT22;6128;59.340;18.040;2022-08-11T00:55:23;20.40;99.90
12130;DHT22;6128;59.340;18.040;2022-08-11T00:58:26;20.40;99.90
12130;DHT22;6128;59.340;18.040;2022-08-11T01:01:23;20.40;99.90
12130;DHT22;6128;59.340;18.040;2022-08-11T01:04:16;20.30;99.90
12130;DHT22;6128;59.340;18.040;2022-08-11T01:07:14;20.30;99.90
12130;DHT22;6128;59.340;18.040;2022-08-11T01:10:10;20.30;99.90
12130;DHT22;6128;59.340;18.040;2022-08-11T01:12:48;20.30;99.90
12130;DHT22;6128;59.340;18.040;2022-08-11T01:24:53;20.30;99.90
12130;DHT22;6128;59.340;18.040;2022-08-11T01:31:05;20.20;99.90
12130;DHT22;6128;59.340;18.040;2022-08-11T01:37:14;20.10;99.90
12130;DHT22;6128;59.340;18.040;2022-08-11T01:40:21;20.10;99.90
12130;DHT22;6128;59.340;18.040;2022-08-11T01:43:10;20.10;99.90
12130;DHT22;6128;59.340;18.040;2022-08-11T01:46:01;20.10;99.90
12130;DHT22;6128;59.340;18.040;2022-08-11T01:48:39;20.00;99.90
12130;DHT22;6128;59.340;18.040;2022-08-11T01:51:18;20.00;99.90
12130;DHT22;6128;59.340;18.040;2022-08-11T01:53:56;19.90;99.90
12130;DHT22;6128;59.340;18.040;2022-08-11T01:56:38;19.90;99.90
12130;DHT22;6128;59.340;18.040;2022-08-11T01:59:16;19.90;99.90
12130;DHT22;6128;59.340;18.040;2022-08-11T02:02:02;19.80;99.90
12130;DHT22;6128;59.340;18.040;2022-08-11T02:04:35;19.80;99.90
12130;DHT22;6128;59.340;18.040;2022-08-11T02:07:14;19.90;99.90
12130;DHT22;6128;59.340;18.040;2022-08-11T02:09:52;19.90;99.90
12130;DHT22;6128;59.340;18.040;2022-08-11T02:12:40;19.90;99.90
12130;DHT22;6128;59.340;18.040;2022-08-11T02:15:13;19.90;99.90
12130;DHT22;6128;59.340;18.040;2022-08-11T02:17:49;19.90;99.90
12130;DHT22;6128;59.340;18.040;2022-08-11T02:20:23;19.90;99.90
12130;DHT22;6128;59.340;18.040;2022-08-11T02:23:20;19.90;99.90
12130;DHT22;6128;59.340;18.040;2022-08-11T02:26:13;19.90;99.90
12130;DHT22;6128;59.340;18.040;2022-08-11T02:28:59;19.80;99.90
12130;DHT22;6128;59.340;18.040;2022-08-11T02:31:41;19.70;99.90
12130;DHT22;6128;59.340;18.040;2022-08-11T02:34:37;19.70;99.90
12130;DHT22;6128;59.340;18.040;2022-08-11T02:37:15;19.70;99.90
12130;DHT22;6128;59.340;18.040;2022-08-11T02:39:50;19.70;99.90
12130;DHT22;6128;59.340;18.040;2022-08-11T02:42:28;19.70;99.90
12130;DHT22;6128;59.340;18.040;2022-08-11T02:45:18;19.70;99.90
12130;DHT22;6128;59.340;18.040;2022-08-11T02:47:59;19.70;99.90
12130;DHT22;6128;59.340;18.040;2022-08-11T02:50:51;19.60;99.90
12130;DHT22;6128;59.340;18.040;2022-08-11T02:53:31;19.50;99.90
12130;DHT22;6128;59.340;18.040;2022-08-11T02:56:07;19.60;99.90
12130;DHT22;6128;59.340;18.040;2022-08-11T02:58:56;19.60;99.90
12130;DHT22;6128;59.340;18.040;2022-08-11T03:01:47;19.60;99.90
12130;DHT22;6128;59.340;18.040;2022-08-11T03:04:21;19.60;99.90
12130;DHT22;6128;59.340;18.040;2022-08-11T03:06:58;19.70;99.90
12130;DHT22;6128;59.340;18.040;2022-08-11T03:09:41;19.60;99.90
12130;DHT22;6128;59.340;18.040;2022-08-11T03:12:18;19.60;99.90
12130;DHT22;6128;59.340;18.040;2022-08-11T03:15:11;19.50;99.90
12130;DHT22;6128;59.340;18.040;2022-08-11T03:18:20;19.50;99.90
12130;DHT22;6128;59.340;18.040;2022-08-11T03:20:56;19.40;99.90
12130;DHT22;6128;59.340;18.040;2022-08-11T03:23:32;19.40;99.90
12130;DHT22;6128;59.340;18.040;2022-08-11T03:26:06;19.40;99.90
12130;DHT22;6128;59.340;18.040;2022-08-11T03:28:44;19.50;99.90
12130;DHT22;6128;59.340;18.040;2022-08-11T03:31:24;19.40;99.90
12130;DHT22;6128;59.340;18.040;2022-08-11T03:33:56;19.40;99.90
12130;DHT22;6128;59.340;18.040;2022-08-11T03:36:58;19.50;99.90
12130;DHT22;6128;59.340;18.040;2022-08-11T03:39:41;19.40;99.90
12130;DHT22;6128;59.340;18.040;2022-08-11T03:42:17;19.40;99.90
12130;DHT22;6128;59.340;18.040;2022-08-11T03:47:48;19.50;99.90
12130;DHT22;6128;59.340;18.040;2022-08-11T03:50:29;19.50;99.90
12130;DHT22;6128;59.340;18.040;2022-08-11T03:53:08;19.50;99.90
12130;DHT22;6128;59.340;18.040;2022-08-11T03:56:11;19.50;99.90
12130;DHT22;6128;59.340;18.040;2022-08-11T03:59:16;19.50;99.90
12130;DHT22;6128;59.340;18.040;2022-08-11T04:02:09;19.50;99.90
12130;DHT22;6128;59.340;18.040;2022-08-11T04:11:48;19.50;99.90
12130;DHT22;6128;59.340;18.040;2022-08-11T04:14:57;19.50;99.90
12130;DHT22;6128;59.340;18.040;2022-08-11T04:18:17;19.60;99.90
12130;DHT22;6128;59.340;18.040;2022-08-11T04:21:07;19.70;99.90
12130;DHT22;6128;59.340;18.040;2022-08-11T04:27:00;19.70;99.90
12130;DHT22;6128;59.340;18.040;2022-08-11T04:29:45;19.70;99.90
12130;DHT22;6128;59.340;18.040;2022-08-11T04:32:35;19.70;99.90
12130;DHT22;6128;59.340;18.040;2022-08-11T04:35:31;19.70;99.90
12130;DHT22;6128;59.340;18.040;2022-08-11T04:38:28;19.70;99.90
12130;DHT22;6128;59.340;18.040;2022-08-11T04:44:56;19.60;99.90
12130;DHT22;6128;59.340;18.040;2022-08-11T04:47:59;19.50;99.90
12130;DHT22;6128;59.340;18.040;2022-08-11T04:50:57;19.50;99.90
12130;DHT22;6128;59.340;18.040;2022-08-11T04:53:55;19.50;99.90
12130;DHT22;6128;59.340;18.040;2022-08-11T04:56:44;19.50;99.90
12130;DHT22;6128;59.340;18.040;2022-08-11T04:59:56;19.50;99.90
12130;DHT22;6128;59.340;18.040;2022-08-11T05:06:17;19.60;99.90
12130;DHT22;6128;59.340;18.040;2022-08-11T05:09:03;19.70;99.90
12130;DHT22;6128;59.340;18.040;2022-08-11T05:14:36;19.70;99.90
12130;DHT22;6128;59.340;18.040;2022-08-11T05:17:30;19.70;99.90
12130;DHT22;6128;59.340;18.040;2022-08-11T05:20:17;19.80;99.90
12130;DHT22;6128;59.340;18.040;2022-08-11T05:23:05;19.80;99.90
12130;DHT22;6128;59.340;18.040;2022-08-11T05:25:56;19.70;99.90
12130;DHT22;6128;59.340;18.040;2022-08-11T05:28:49;19.60;99.90
12130;DHT22;6128;59.340;18.040;2022-08-11T05:31:38;19.50;99.90
12130;DHT22;6128;59.340;18.040;2022-08-11T05:34:26;19.50;99.90
12130;DHT22;6128;59.340;18.040;2022-08-11T05:37:24;19.40;99.90
12130;DHT22;6128;59.340;18.040;2022-08-11T05:40:04;19.40;99.90
12130;DHT22;6128;59.340;18.040;2022-08-11T05:42:55;19.40;99.90
12130;DHT22;6128;59.340;18.040;2022-08-11T05:45:40;19.40;99.90
12130;DHT22;6128;59.340;18.040;2022-08-11T05:48:31;19.40;99.90
12130;DHT22;6128;59.340;18.040;2022-08-11T05:51:16;19.50;99.90
12130;DHT22;6128;59.340;18.040;2022-08-11T05:54:03;19.50;99.90
12130;DHT22;6128;59.340;18.040;2022-08-11T05:56:53;19.60;99.90
12130;DHT22;6128;59.340;18.040;2022-08-11T05:59:27;19.50;99.90
12130;DHT22;6128;59.340;18.040;2022-08-11T06:01:59;19.50;99.90
12130;DHT22;6128;59.340;18.040;2022-08-11T06:04:28;19.60;99.90
12130;DHT22;6128;59.340;18.040;2022-08-11T06:06:57;19.60;99.90
12130;DHT22;6128;59.340;18.040;2022-08-11T06:09:31;19.70;99.90
12130;DHT22;6128;59.340;18.040;2022-08-11T06:12:02;19.70;99.90
12130;DHT22;6128;59.340;18.040;2022-08-11T06:14:32;19.80;99.90
12130;DHT22;6128;59.340;18.040;2022-08-11T06:17:02;19.90;99.90
12130;DHT22;6128;59.340;18.040;2022-08-11T06:19:34;20.00;99.90
12130;DHT22;6128;59.340;18.040;2022-08-11T06:22:04;20.10;99.90
12130;DHT22;6128;59.340;18.040;2022-08-11T06:24:33;20.30;99.90
12130;DHT22;6128;59.340;18.040;2022-08-11T06:27:03;20.40;99.90
12130;DHT22;6128;59.340;18.040;2022-08-11T06:29:35;20.60;99.90
12130;DHT22;6128;59.340;18.040;2022-08-11T06:32:05;21.10;99.90
12130;DHT22;6128;59.340;18.040;2022-08-11T06:37:40;22.70;99.90
12130;DHT22;6128;59.340;18.040;2022-08-11T06:40:19;23.80;99.90
12130;DHT22;6128;59.340;18.040;2022-08-11T06:42:54;24.60;99.90
12130;DHT22;6128;59.340;18.040;2022-08-11T06:45:28;25.40;99.90
12130;DHT22;6128;59.340;18.040;2022-08-11T06:47:57;25.90;99.90
12130;DHT22;6128;59.340;18.040;2022-08-11T06:50:27;26.10;99.90
12130;DHT22;6128;59.340;18.040;2022-08-11T06:53:15;26.20;99.90
12130;DHT22;6128;59.340;18.040;2022-08-11T06:55:45;26.30;99.90
12130;DHT22;6128;59.340;18.040;2022-08-11T06:58:33;26.30;99.90
12130;DHT22;6128;59.340;18.040;2022-08-11T07:01:28;26.80;99.90
12130;DHT22;6128;59.340;18.040;2022-08-11T07:04:06;27.10;99.90
12130;DHT22;6128;59.340;18.040;2022-08-11T07:06:52;27.30;99.90
12130;DHT22;6128;59.340;18.040;2022-08-11T07:09:56;27.50;99.90
12130;DHT22;6128;59.340;18.040;2022-08-11T07:12:49;27.60;99.90
12130;DHT22;6128;59.340;18.040;2022-08-11T07:15:36;27.40;99.90
12130;DHT22;6128;59.340;18.040;2022-08-11T07:18:24;27.40;99.90
12130;DHT22;6128;59.340;18.040;2022-08-11T07:21:18;27.70;99.90
12130;DHT22;6128;59.340;18.040;2022-08-11T07:24:13;27.70;99.90
12130;DHT22;6128;59.340;18.040;2022-08-11T07:26:59;27.90;99.90
12130;DHT22;6128;59.340;18.040;2022-08-11T07:29:48;28.20;99.90
12130;DHT22;6128;59.340;18.040;2022-08-11T07:32:23;28.10;99.90
12130;DHT22;6128;59.340;18.040;2022-08-11T07:34:57;27.90;99.90
12130;DHT22;6128;59.340;18.040;2022-08-11T07:37:29;27.70;99.90
12130;DHT22;6128;59.340;18.040;2022-08-11T07:39:58;27.60;99.90
12130;DHT22;6128;59.340;18.040;2022-08-11T07:42:29;27.50;99.90
12130;DHT22;6128;59.340;18.040;2022-08-11T07:45:03;27.50;99.90
12130;DHT22;6128;59.340;18.040;2022-08-11T07:47:48;27.70;99.90
12130;DHT22;6128;59.340;18.040;2022-08-11T07:50:35;27.80;99.90
12130;DHT22;6128;59.340;18.040;2022-08-11T07:53:23;27.80;99.90
12130;DHT22;6128;59.340;18.040;2022-08-11T07:55:53;27.70;99.90
12130;DHT22;6128;59.340;18.040;2022-08-11T07:58:22;27.80;99.90
12130;DHT22;6128;59.340;18.040;2022-08-11T08:01:10;27.90;99.90
12130;DHT22;6128;59.340;18.040;2022-08-11T08:03:57;27.80;99.80
12130;DHT22;6128;59.340;18.040;2022-08-11T08:06:43;27.90;99.70
12130;DHT22;6128;59.340;18.040;2022-08-11T08:09:33;27.70;99.60
12130;DHT22;6128;59.340;18.040;2022-08-11T08:12:19;27.60;99.50
12130;DHT22;6128;59.340;18.040;2022-08-11T08:15:06;27.70;99.40
12130;DHT22;6128;59.340;18.040;2022-08-11T08:17:53;27.80;99.20
12130;DHT22;6128;59.340;18.040;2022-08-11T08:20:25;27.90;99.10
12130;DHT22;6128;59.340;18.040;2022-08-11T08:22:56;27.90;99.00
12130;DHT22;6128;59.340;18.040;2022-08-11T08:25:25;28.00;98.90
12130;DHT22;6128;59.340;18.040;2022-08-11T08:27:54;28.10;98.90
12130;DHT22;6128;59.340;18.040;2022-08-11T08:30:23;28.20;98.80
12130;DHT22;6128;59.340;18.040;2022-08-11T08:33:08;28.20;98.80
12130;DHT22;6128;59.340;18.040;2022-08-11T08:35:38;28.00;98.80
12130;DHT22;6128;59.340;18.040;2022-08-11T08:38:08;28.10;98.80
12130;DHT22;6128;59.340;18.040;2022-08-11T08:40:37;28.20;98.80
12130;DHT22;6128;59.340;18.040;2022-08-11T08:43:07;28.30;98.70
12130;DHT22;6128;59.340;18.040;2022-08-11T08:45:36;28.20;98.60
12130;DHT22;6128;59.340;18.040;2022-08-11T08:48:10;28.20;98.70
12130;DHT22;6128;59.340;18.040;2022-08-11T08:50:42;28.30;98.60
12130;DHT22;6128;59.340;18.040;2022-08-11T08:53:33;28.30;98.70
12130;DHT22;6128;59.340;18.040;2022-08-11T08:56:01;28.40;98.70
12130;DHT22;6128;59.340;18.040;2022-08-11T08:58:29;28.50;98.90
12130;DHT22;6128;59.340;18.040;2022-08-11T09:00:58;28.70;99.00
12130;DHT22;6128;59.340;18.040;2022-08-11T09:03:25;29.00;99.10
12130;DHT22;6128;59.340;18.040;2022-08-11T09:05:53;29.40;99.30
12130;DHT22;6128;59.340;18.040;2022-08-11T09:08:22;29.50;99.40
12130;DHT22;6128;59.340;18.040;2022-08-11T09:10:51;29.80;99.50
12130;DHT22;6128;59.340;18.040;2022-08-11T09:13:38;30.00;99.40
12130;DHT22;6128;59.340;18.040;2022-08-11T09:16:08;30.20;99.40
12130;DHT22;6128;59.340;18.040;2022-08-11T09:18:36;30.40;99.00
12130;DHT22;6128;59.340;18.040;2022-08-11T09:21:04;30.40;98.80
12130;DHT22;6128;59.340;18.040;2022-08-11T09:23:31;30.50;98.40
12130;DHT22;6128;59.340;18.040;2022-08-11T09:26:21;30.60;98.10
12130;DHT22;6128;59.340;18.040;2022-08-11T09:29:07;30.40;97.30
12130;DHT22;6128;59.340;18.040;2022-08-11T09:31:36;29.70;96.20
12130;DHT22;6128;59.340;18.040;2022-08-11T09:34:04;28.90;95.50
12130;DHT22;6128;59.340;18.040;2022-08-11T09:36:31;28.20;94.90
12130;DHT22;6128;59.340;18.040;2022-08-11T09:39:17;27.60;94.50
12130;DHT22;6128;59.340;18.040;2022-08-11T09:42:04;27.10;94.00
12130;DHT22;6128;59.340;18.040;2022-08-11T09:44:32;26.70;93.90
12130;DHT22;6128;59.340;18.040;2022-08-11T09:47:19;26.50;93.50
12130;DHT22;6128;59.340;18.040;2022-08-11T09:49:50;26.20;93.40
12130;DHT22;6128;59.340;18.040;2022-08-11T09:52:18;26.00;93.40
12130;DHT22;6128;59.340;18.040;2022-08-11T09:54:47;25.90;93.40
12130;DHT22;6128;59.340;18.040;2022-08-11T09:57:20;25.80;93.50
12130;DHT22;6128;59.340;18.040;2022-08-11T10:00:06;25.70;93.50
12130;DHT22;6128;59.340;18.040;2022-08-11T10:02:39;25.60;93.60
12130;DHT22;6128;59.340;18.040;2022-08-11T10:05:07;25.50;93.60
12130;DHT22;6128;59.340;18.040;2022-08-11T10:07:58;25.40;93.70
12130;DHT22;6128;59.340;18.040;2022-08-11T10:10:26;25.30;93.70
12130;DHT22;6128;59.340;18.040;2022-08-11T10:13:12;25.40;93.80
12130;DHT22;6128;59.340;18.040;2022-08-11T10:15:45;25.40;93.80
12130;DHT22;6128;59.340;18.040;2022-08-11T10:18:15;25.50;93.80
12130;DHT22;6128;59.340;18.040;2022-08-11T10:21:15;25.50;93.80
12130;DHT22;6128;59.340;18.040;2022-08-11T10:23:43;25.50;93.80
12130;DHT22;6128;59.340;18.040;2022-08-11T10:26:30;25.60;93.90
12130;DHT22;6128;59.340;18.040;2022-08-11T10:29:20;25.50;93.80
12130;DHT22;6128;59.340;18.040;2022-08-11T10:32:07;25.50;93.80
12130;DHT22;6128;59.340;18.040;2022-08-11T10:34:53;25.50;93.80
12130;DHT22;6128;59.340;18.040;2022-08-11T10:37:23;25.50;93.80
12130;DHT22;6128;59.340;18.040;2022-08-11T10:39:51;25.50;93.70
12130;DHT22;6128;59.340;18.040;2022-08-11T10:42:21;25.50;93.70
12130;DHT22;6128;59.340;18.040;2022-08-11T10:45:09;25.50;93.70
12130;DHT22;6128;59.340;18.040;2022-08-11T10:47:51;25.60;93.70
12130;DHT22;6128;59.340;18.040;2022-08-11T10:50:18;25.60;93.60
12130;DHT22;6128;59.340;18.040;2022-08-11T10:53:03;25.70;93.60
12130;DHT22;6128;59.340;18.040;2022-08-11T10:55:48;25.80;93.60
12130;DHT22;6128;59.340;18.040;2022-08-11T10:58:33;25.80;93.60
12130;DHT22;6128;59.340;18.040;2022-08-11T11:01:14;25.80;93.50
12130;DHT22;6128;59.340;18.040;2022-08-11T11:03:42;25.90;93.50
12130;DHT22;6128;59.340;18.040;2022-08-11T11:06:28;26.00;93.50
12130;DHT22;6128;59.340;18.040;2022-08-11T11:09:02;26.10;93.40
12130;DHT22;6128;59.340;18.040;2022-08-11T11:11:35;26.20;93.30
12130;DHT22;6128;59.340;18.040;2022-08-11T11:14:24;26.20;93.30
12130;DHT22;6128;59.340;18.040;2022-08-11T11:17:29;26.20;93.20
12130;DHT22;6128;59.340;18.040;2022-08-11T11:20:17;26.30;93.10
12130;DHT22;6128;59.340;18.040;2022-08-11T11:22:52;26.30;93.00
12130;DHT22;6128;59.340;18.040;2022-08-11T11:25:29;26.30;92.90
12130;DHT22;6128;59.340;18.040;2022-08-11T11:28:17;26.30;92.70
12130;DHT22;6128;59.340;18.040;2022-08-11T11:30:54;26.30;92.40
12130;DHT22;6128;59.340;18.040;2022-08-11T11:33:41;26.20;92.20
12130;DHT22;6128;59.340;18.040;2022-08-11T11:36:21;26.30;92.20
12130;DHT22;6128;59.340;18.040;2022-08-11T11:38:51;26.40;92.10
12130;DHT22;6128;59.340;18.040;2022-08-11T11:41:21;26.50;92.10
12130;DHT22;6128;59.340;18.040;2022-08-11T11:43:53;26.60;92.10
12130;DHT22;6128;59.340;18.040;2022-08-11T11:46:22;26.70;92.20
12130;DHT22;6128;59.340;18.040;2022-08-11T11:48:52;26.70;92.20
12130;DHT22;6128;59.340;18.040;2022-08-11T11:51:21;26.80;92.10
12130;DHT22;6128;59.340;18.040;2022-08-11T11:53:49;26.80;92.10
12130;DHT22;6128;59.340;18.040;2022-08-11T11:56:18;26.90;92.10
12130;DHT22;6128;59.340;18.040;2022-08-11T11:58:47;26.90;92.00
12130;DHT22;6128;59.340;18.040;2022-08-11T12:01:33;26.90;91.90
12130;DHT22;6128;59.340;18.040;2022-08-11T12:04:05;26.90;91.80
12130;DHT22;6128;59.340;18.040;2022-08-11T12:06:32;26.90;91.50
12130;DHT22;6128;59.340;18.040;2022-08-11T12:09:00;26.90;91.40
12130;DHT22;6128;59.340;18.040;2022-08-11T12:11:29;26.90;91.30
12130;DHT22;6128;59.340;18.040;2022-08-11T12:14:16;26.80;91.10
12130;DHT22;6128;59.340;18.040;2022-08-11T12:16:45;26.80;91.00
12130;DHT22;6128;59.340;18.040;2022-08-11T12:19:16;26.70;91.00
12130;DHT22;6128;59.340;18.040;2022-08-11T12:21:44;26.80;91.00
12130;DHT22;6128;59.340;18.040;2022-08-11T12:24:27;26.90;91.00
12130;DHT22;6128;59.340;18.040;2022-08-11T12:27:12;26.90;91.00
12130;DHT22;6128;59.340;18.040;2022-08-11T12:29:50;27.00;90.90
12130;DHT22;6128;59.340;18.040;2022-08-11T12:32:19;27.10;90.90
12130;DHT22;6128;59.340;18.040;2022-08-11T12:34:48;27.10;90.90
12130;DHT22;6128;59.340;18.040;2022-08-11T12:37:22;27.00;90.80
12130;DHT22;6128;59.340;18.040;2022-08-11T12:39:58;27.20;90.80
12130;DHT22;6128;59.340;18.040;2022-08-11T12:42:44;27.30;90.70
12130;DHT22;6128;59.340;18.040;2022-08-11T12:45:29;27.30;90.70
12130;DHT22;6128;59.340;18.040;2022-08-11T12:48:04;27.30;90.60
12130;DHT22;6128;59.340;18.040;2022-08-11T12:50:54;27.30;90.60
12130;DHT22;6128;59.340;18.040;2022-08-11T12:53:44;27.40;90.50
12130;DHT22;6128;59.340;18.040;2022-08-11T12:56:12;27.40;90.30
12130;DHT22;6128;59.340;18.040;2022-08-11T12:58:57;27.40;90.20
12130;DHT22;6128;59.340;18.040;2022-08-11T13:01:43;27.50;90.20
12130;DHT22;6128;59.340;18.040;2022-08-11T13:04:28;27.50;90.10
12130;DHT22;6128;59.340;18.040;2022-08-11T13:07:15;27.50;89.90
12130;DHT22;6128;59.340;18.040;2022-08-11T13:09:45;27.50;89.80
12130;DHT22;6128;59.340;18.040;2022-08-11T13:12:13;27.50;89.70
12130;DHT22;6128;59.340;18.040;2022-08-11T13:14:58;27.50;89.50
12130;DHT22;6128;59.340;18.040;2022-08-11T13:17:26;27.60;89.20
12130;DHT22;6128;59.340;18.040;2022-08-11T13:19:56;27.50;88.90
12130;DHT22;6128;59.340;18.040;2022-08-11T13:22:25;27.50;88.70
12130;DHT22;6128;59.340;18.040;2022-08-11T13:24:53;27.60;88.30
12130;DHT22;6128;59.340;18.040;2022-08-11T13:27:21;27.70;88.00
12130;DHT22;6128;59.340;18.040;2022-08-11T13:29:50;27.70;87.60
12130;DHT22;6128;59.340;18.040;2022-08-11T13:32:39;27.70;87.20
12130;DHT22;6128;59.340;18.040;2022-08-11T13:35:08;27.70;86.80
12130;DHT22;6128;59.340;18.040;2022-08-11T13:37:41;27.70;86.30
12130;DHT22;6128;59.340;18.040;2022-08-11T13:40:11;27.70;85.90
12130;DHT22;6128;59.340;18.040;2022-08-11T13:42:39;27.80;85.50
12130;DHT22;6128;59.340;18.040;2022-08-11T13:45:08;27.80;85.00
12130;DHT22;6128;59.340;18.040;2022-08-11T13:47:36;27.80;84.60
12130;DHT22;6128;59.340;18.040;2022-08-11T13:50:05;27.80;84.20
12130;DHT22;6128;59.340;18.040;2022-08-11T13:52:34;27.80;83.90
12130;DHT22;6128;59.340;18.040;2022-08-11T13:55:07;27.80;83.60
12130;DHT22;6128;59.340;18.040;2022-08-11T13:57:35;27.70;82.90
12130;DHT22;6128;59.340;18.040;2022-08-11T14:00:05;27.60;82.70
12130;DHT22;6128;59.340;18.040;2022-08-11T14:02:41;27.70;82.20
12130;DHT22;6128;59.340;18.040;2022-08-11T14:05:15;27.70;82.00
12130;DHT22;6128;59.340;18.040;2022-08-11T14:07:47;27.70;81.60
12130;DHT22;6128;59.340;18.040;2022-08-11T14:10:19;27.60;81.30
12130;DHT22;6128;59.340;18.040;2022-08-11T14:12:50;27.60;81.40
12130;DHT22;6128;59.340;18.040;2022-08-11T14:15:41;27.60;81.20
12130;DHT22;6128;59.340;18.040;2022-08-11T14:18:16;27.70;81.20
12130;DHT22;6128;59.340;18.040;2022-08-11T14:20:48;27.70;81.10
12130;DHT22;6128;59.340;18.040;2022-08-11T14:23:38;27.70;81.00
12130;DHT22;6128;59.340;18.040;2022-08-11T14:26:09;27.70;80.90
12130;DHT22;6128;59.340;18.040;2022-08-11T14:28:51;27.70;80.90
12130;DHT22;6128;59.340;18.040;2022-08-11T14:31:21;27.70;81.00
12130;DHT22;6128;59.340;18.040;2022-08-11T14:33:51;27.70;81.00
12130;DHT22;6128;59.340;18.040;2022-08-11T14:36:21;27.60;81.00
12130;DHT22;6128;59.340;18.040;2022-08-11T14:38:49;27.60;81.20
12130;DHT22;6128;59.340;18.040;2022-08-11T14:41:19;27.60;81.30
12130;DHT22;6128;59.340;18.040;2022-08-11T14:44:05;27.60;81.30
12130;DHT22;6128;59.340;18.040;2022-08-11T14:46:52;27.50;81.30
12130;DHT22;6128;59.340;18.040;2022-08-11T14:49:34;27.50;81.30
12130;DHT22;6128;59.340;18.040;2022-08-11T14:52:03;27.40;81.30
12130;DHT22;6128;59.340;18.040;2022-08-11T14:54:32;27.50;81.30
12130;DHT22;6128;59.340;18.040;2022-08-11T14:57:20;27.60;81.30
12130;DHT22;6128;59.340;18.040;2022-08-11T14:59:54;27.70;81.10
12130;DHT22;6128;59.340;18.040;2022-08-11T15:02:22;27.70;81.10
12130;DHT22;6128;59.340;18.040;2022-08-11T15:05:07;27.70;81.10
12130;DHT22;6128;59.340;18.040;2022-08-11T15:07:35;27.70;81.00
12130;DHT22;6128;59.340;18.040;2022-08-11T15:10:05;27.70;80.90
12130;DHT22;6128;59.340;18.040;2022-08-11T15:12:36;27.80;80.70
12130;DHT22;6128;59.340;18.040;2022-08-11T15:15:05;27.80;80.70
12130;DHT22;6128;59.340;18.040;2022-08-11T15:17:53;27.80;80.50
12130;DHT22;6128;59.340;18.040;2022-08-11T15:20:20;27.80;80.30
12130;DHT22;6128;59.340;18.040;2022-08-11T15:23:07;27.80;80.20
12130;DHT22;6128;59.340;18.040;2022-08-11T15:25:54;27.80;80.00
12130;DHT22;6128;59.340;18.040;2022-08-11T15:28:26;27.80;79.80
12130;DHT22;6128;59.340;18.040;2022-08-11T15:31:13;27.80;79.50
12130;DHT22;6128;59.340;18.040;2022-08-11T15:34:02;27.70;79.20
12130;DHT22;6128;59.340;18.040;2022-08-11T15:36:48;27.60;79.00
12130;DHT22;6128;59.340;18.040;2022-08-11T15:39:37;27.60;78.70
12130;DHT22;6128;59.340;18.040;2022-08-11T15:42:26;27.50;78.50
12130;DHT22;6128;59.340;18.040;2022-08-11T15:45:13;27.50;78.20
12130;DHT22;6128;59.340;18.040;2022-08-11T15:48:05;27.50;78.00
12130;DHT22;6128;59.340;18.040;2022-08-11T15:50:38;27.50;77.90
12130;DHT22;6128;59.340;18.040;2022-08-11T15:53:09;27.50;77.80
12130;DHT22;6128;59.340;18.040;2022-08-11T15:55:38;27.50;77.60
12130;DHT22;6128;59.340;18.040;2022-08-11T15:58:08;27.50;77.50
12130;DHT22;6128;59.340;18.040;2022-08-11T16:00:54;27.60;77.40
12130;DHT22;6128;59.340;18.040;2022-08-11T16:03:46;27.60;77.30
12130;DHT22;6128;59.340;18.040;2022-08-11T16:06:33;27.50;77.00
12130;DHT22;6128;59.340;18.040;2022-08-11T16:09:01;27.50;76.90
12130;DHT22;6128;59.340;18.040;2022-08-11T16:11:32;27.40;76.80
12130;DHT22;6128;59.340;18.040;2022-08-11T16:14:01;27.30;76.70
12130;DHT22;6128;59.340;18.040;2022-08-11T16:16:49;27.20;76.50
12130;DHT22;6128;59.340;18.040;2022-08-11T16:19:19;27.20;76.50
12130;DHT22;6128;59.340;18.040;2022-08-11T16:21:48;27.10;76.60
12130;DHT22;6128;59.340;18.040;2022-08-11T16:24:19;27.10;76.60
12130;DHT22;6128;59.340;18.040;2022-08-11T16:26:49;27.00;76.50
12130;DHT22;6128;59.340;18.040;2022-08-11T16:29:18;27.00;76.60
12130;DHT22;6128;59.340;18.040;2022-08-11T16:31:49;27.00;76.70
12130;DHT22;6128;59.340;18.040;2022-08-11T16:34:32;26.90;76.70
12130;DHT22;6128;59.340;18.040;2022-08-11T16:37:32;26.90;76.80
12130;DHT22;6128;59.340;18.040;2022-08-11T16:40:18;26.80;76.80
12130;DHT22;6128;59.340;18.040;2022-08-11T16:43:11;26.80;76.90
12130;DHT22;6128;59.340;18.040;2022-08-11T16:45:57;26.80;76.90
12130;DHT22;6128;59.340;18.040;2022-08-11T16:48:47;26.70;77.00
12130;DHT22;6128;59.340;18.040;2022-08-11T16:51:15;26.70;77.10
12130;DHT22;6128;59.340;18.040;2022-08-11T16:53:46;26.70;77.20
12130;DHT22;6128;59.340;18.040;2022-08-11T16:56:17;26.60;77.30
12130;DHT22;6128;59.340;18.040;2022-08-11T16:58:48;26.60;77.30
12130;DHT22;6128;59.340;18.040;2022-08-11T17:01:34;26.50;77.40
12130;DHT22;6128;59.340;18.040;2022-08-11T17:04:08;26.50;77.50
12130;DHT22;6128;59.340;18.040;2022-08-11T17:06:56;26.50;77.40
12130;DHT22;6128;59.340;18.040;2022-08-11T17:09:41;26.40;77.50
12130;DHT22;6128;59.340;18.040;2022-08-11T17:12:30;26.40;77.50
12130;DHT22;6128;59.340;18.040;2022-08-11T17:15:17;26.30;77.50
12130;DHT22;6128;59.340;18.040;2022-08-11T17:18:05;26.40;77.50
12130;DHT22;6128;59.340;18.040;2022-08-11T17:20:35;26.30;77.40
12130;DHT22;6128;59.340;18.040;2022-08-11T17:23:05;26.30;77.50
12130;DHT22;6128;59.340;18.040;2022-08-11T17:25:51;26.20;77.50
12130;DHT22;6128;59.340;18.040;2022-08-11T17:28:20;26.20;77.50